Ambrose, North Dakota
Current Conditions -  °F | °C
As of 9:15 PM on Friday 21 Nov 2014 (Local Time) from KD50 Reporting Station
Clear Clear  
Wind Chill: -5°   Ceiling: Unl
Heat Index:   Visibility: 10mi
Dew Point:   Wind: 12mph
Humidity: 100%   Direction: 240°WSW
Pressure: 29.6"   Gusts: NA
Location:  48.95°N, 103.48°W
Report Text: KD50 220315Z AUTO 24010KT 10SM CLR 00/00 A2960 RMK AO2
Loading
Personal Weather Stations






























Interactive Weather Map New forecast layout! Learn more

10-Day Weather Forecast

Advertisements
Track Severe Weather on mobile